sensor_id;sensor_type;location;lat;lon;timestamp;P1;durP1;ratioP1;P2;durP2;ratioP2
62927;SDS011;51070;52.236;-0.892;2023-02-14T00:01:11;27.50;;;15.60;;
62927;SDS011;51070;52.236;-0.892;2023-02-14T00:03:37;27.90;;;15.80;;
62927;SDS011;51070;52.236;-0.892;2023-02-14T00:06:06;29.80;;;17.70;;
62927;SDS011;51070;52.236;-0.892;2023-02-14T00:08:33;33.70;;;18.60;;
62927;SDS011;51070;52.236;-0.892;2023-02-14T00:11:00;41.90;;;23.00;;
62927;SDS011;51070;52.236;-0.892;2023-02-14T00:13:26;36.90;;;19.50;;
62927;SDS011;51070;52.236;-0.892;2023-02-14T00:15:53;38.00;;;20.10;;
62927;SDS011;51070;52.236;-0.892;2023-02-14T00:18:19;32.60;;;19.40;;
62927;SDS011;51070;52.236;-0.892;2023-02-14T00:20:44;32.30;;;18.80;;
62927;SDS011;51070;52.236;-0.892;2023-02-14T00:23:09;32.10;;;19.20;;
62927;SDS011;51070;52.236;-0.892;2023-02-14T00:25:35;31.30;;;18.90;;
62927;SDS011;51070;52.236;-0.892;2023-02-14T00:28:00;32.10;;;17.70;;
62927;SDS011;51070;52.236;-0.892;2023-02-14T00:30:26;35.90;;;19.70;;
62927;SDS011;51070;52.236;-0.892;2023-02-14T00:32:51;35.50;;;20.10;;
62927;SDS011;51070;52.236;-0.892;2023-02-14T00:35:17;32.90;;;18.70;;
62927;SDS011;51070;52.236;-0.892;2023-02-14T00:37:42;35.20;;;19.20;;
62927;SDS011;51070;52.236;-0.892;2023-02-14T00:40:10;32.30;;;17.50;;
62927;SDS011;51070;52.236;-0.892;2023-02-14T00:42:36;34.50;;;20.80;;
62927;SDS011;51070;52.236;-0.892;2023-02-14T00:45:01;39.50;;;20.30;;
62927;SDS011;51070;52.236;-0.892;2023-02-14T00:47:27;35.90;;;19.80;;
62927;SDS011;51070;52.236;-0.892;2023-02-14T00:49:52;34.00;;;18.80;;
62927;SDS011;51070;52.236;-0.892;2023-02-14T00:52:18;34.70;;;20.50;;
62927;SDS011;51070;52.236;-0.892;2023-02-14T00:54:43;32.80;;;19.50;;
62927;SDS011;51070;52.236;-0.892;2023-02-14T00:57:09;34.70;;;19.00;;
62927;SDS011;51070;52.236;-0.892;2023-02-14T00:59:34;33.50;;;19.10;;
62927;SDS011;51070;52.236;-0.892;2023-02-14T01:02:00;32.00;;;19.00;;
62927;SDS011;51070;52.236;-0.892;2023-02-14T01:04:25;33.80;;;19.60;;
62927;SDS011;51070;52.236;-0.892;2023-02-14T01:06:50;29.90;;;15.90;;
62927;SDS011;51070;52.236;-0.892;2023-02-14T01:09:16;38.10;;;20.10;;
62927;SDS011;51070;52.236;-0.892;2023-02-14T01:11:42;35.00;;;19.00;;
62927;SDS011;51070;52.236;-0.892;2023-02-14T01:14:07;38.60;;;21.10;;
62927;SDS011;51070;52.236;-0.892;2023-02-14T01:16:33;31.10;;;19.40;;
62927;SDS011;51070;52.236;-0.892;2023-02-14T01:18:59;36.40;;;21.20;;
62927;SDS011;51070;52.236;-0.892;2023-02-14T01:21:29;37.40;;;21.50;;
62927;SDS011;51070;52.236;-0.892;2023-02-14T01:23:57;34.60;;;19.20;;
62927;SDS011;51070;52.236;-0.892;2023-02-14T01:26:25;33.70;;;19.40;;
62927;SDS011;51070;52.236;-0.892;2023-02-14T01:28:52;39.10;;;20.20;;
62927;SDS011;51070;52.236;-0.892;2023-02-14T01:31:18;31.90;;;19.50;;
62927;SDS011;51070;52.236;-0.892;2023-02-14T01:33:49;38.00;;;20.10;;
62927;SDS011;51070;52.236;-0.892;2023-02-14T01:38:45;31.90;;;18.70;;
62927;SDS011;51070;52.236;-0.892;2023-02-14T01:41:11;38.60;;;21.80;;
62927;SDS011;51070;52.236;-0.892;2023-02-14T01:46:17;36.40;;;20.30;;
62927;SDS011;51070;52.236;-0.892;2023-02-14T01:48:43;36.00;;;20.20;;
62927;SDS011;51070;52.236;-0.892;2023-02-14T01:51:09;37.20;;;20.90;;
62927;SDS011;51070;52.236;-0.892;2023-02-14T01:53:35;35.20;;;19.60;;
62927;SDS011;51070;52.236;-0.892;2023-02-14T01:56:05;35.40;;;21.30;;
62927;SDS011;51070;52.236;-0.892;2023-02-14T01:58:35;33.00;;;19.90;;
62927;SDS011;51070;52.236;-0.892;2023-02-14T02:01:03;41.80;;;22.00;;
62927;SDS011;51070;52.236;-0.892;2023-02-14T02:03:36;34.20;;;20.80;;
62927;SDS011;51070;52.236;-0.892;2023-02-14T02:09:06;40.80;;;22.30;;
62927;SDS011;51070;52.236;-0.892;2023-02-14T02:11:39;41.50;;;22.00;;
62927;SDS011;51070;52.236;-0.892;2023-02-14T02:14:08;46.10;;;23.10;;
62927;SDS011;51070;52.236;-0.892;2023-02-14T02:16:42;38.90;;;21.10;;
62927;SDS011;51070;52.236;-0.892;2023-02-14T02:30:28;37.90;;;21.70;;
62927;SDS011;51070;52.236;-0.892;2023-02-14T02:41:26;34.00;;;16.20;;
62927;SDS011;51070;52.236;-0.892;2023-02-14T02:47:22;29.80;;;16.40;;
62927;SDS011;51070;52.236;-0.892;2023-02-14T02:53:24;45.10;;;25.30;;
62927;SDS011;51070;52.236;-0.892;2023-02-14T02:59:02;39.80;;;23.00;;
62927;SDS011;51070;52.236;-0.892;2023-02-14T03:04:55;42.10;;;22.70;;
62927;SDS011;51070;52.236;-0.892;2023-02-14T03:15:06;33.50;;;20.60;;
62927;SDS011;51070;52.236;-0.892;2023-02-14T03:17:36;24.00;;;14.30;;
62927;SDS011;51070;52.236;-0.892;2023-02-14T03:20:16;40.40;;;21.30;;
62927;SDS011;51070;52.236;-0.892;2023-02-14T03:22:51;34.70;;;21.00;;
62927;SDS011;51070;52.236;-0.892;2023-02-14T03:28:37;39.50;;;21.90;;
62927;SDS011;51070;52.236;-0.892;2023-02-14T03:41:53;44.10;;;23.20;;
62927;SDS011;51070;52.236;-0.892;2023-02-14T03:44:28;42.00;;;22.60;;
62927;SDS011;51070;52.236;-0.892;2023-02-14T03:46:57;34.80;;;20.70;;
62927;SDS011;51070;52.236;-0.892;2023-02-14T03:49:29;26.20;;;15.70;;
62927;SDS011;51070;52.236;-0.892;2023-02-14T03:51:59;28.40;;;14.60;;
62927;SDS011;51070;52.236;-0.892;2023-02-14T03:54:27;28.30;;;16.40;;
62927;SDS011;51070;52.236;-0.892;2023-02-14T03:57:03;24.60;;;14.50;;
62927;SDS011;51070;52.236;-0.892;2023-02-14T03:59:31;26.90;;;16.70;;
62927;SDS011;51070;52.236;-0.892;2023-02-14T04:02:05;35.20;;;20.10;;
62927;SDS011;51070;52.236;-0.892;2023-02-14T04:04:35;37.40;;;21.40;;
62927;SDS011;51070;52.236;-0.892;2023-02-14T04:07:09;32.40;;;19.30;;
62927;SDS011;51070;52.236;-0.892;2023-02-14T04:09:36;29.90;;;17.40;;
62927;SDS011;51070;52.236;-0.892;2023-02-14T04:12:02;28.30;;;16.80;;
62927;SDS011;51070;52.236;-0.892;2023-02-14T04:14:27;31.00;;;18.00;;
62927;SDS011;51070;52.236;-0.892;2023-02-14T04:16:54;27.80;;;16.50;;
62927;SDS011;51070;52.236;-0.892;2023-02-14T04:19:38;17.90;;;9.70;;
62927;SDS011;51070;52.236;-0.892;2023-02-14T04:22:04;30.50;;;18.10;;
62927;SDS011;51070;52.236;-0.892;2023-02-14T04:24:29;32.10;;;18.20;;
62927;SDS011;51070;52.236;-0.892;2023-02-14T04:26:55;35.90;;;20.40;;
62927;SDS011;51070;52.236;-0.892;2023-02-14T04:29:36;33.90;;;20.00;;
62927;SDS011;51070;52.236;-0.892;2023-02-14T04:32:03;35.10;;;20.20;;
62927;SDS011;51070;52.236;-0.892;2023-02-14T04:34:30;36.90;;;21.20;;
62927;SDS011;51070;52.236;-0.892;2023-02-14T04:36:55;34.20;;;20.00;;
62927;SDS011;51070;52.236;-0.892;2023-02-14T04:39:21;29.80;;;17.60;;
62927;SDS011;51070;52.236;-0.892;2023-02-14T04:41:46;17.20;;;11.10;;
62927;SDS011;51070;52.236;-0.892;2023-02-14T04:44:11;29.10;;;16.30;;
62927;SDS011;51070;52.236;-0.892;2023-02-14T04:46:37;32.40;;;18.20;;
62927;SDS011;51070;52.236;-0.892;2023-02-14T04:49:05;33.90;;;18.80;;
62927;SDS011;51070;52.236;-0.892;2023-02-14T04:51:30;34.50;;;19.70;;
62927;SDS011;51070;52.236;-0.892;2023-02-14T04:53:56;31.40;;;16.80;;
62927;SDS011;51070;52.236;-0.892;2023-02-14T04:56:21;41.20;;;21.30;;
62927;SDS011;51070;52.236;-0.892;2023-02-14T04:58:46;33.50;;;17.50;;
62927;SDS011;51070;52.236;-0.892;2023-02-14T05:01:12;23.60;;;14.30;;
62927;SDS011;51070;52.236;-0.892;2023-02-14T05:03:37;30.10;;;17.20;;
62927;SDS011;51070;52.236;-0.892;2023-02-14T05:06:03;29.10;;;14.60;;
62927;SDS011;51070;52.236;-0.892;2023-02-14T05:08:28;27.80;;;15.40;;
62927;SDS011;51070;52.236;-0.892;2023-02-14T05:10:54;29.60;;;17.00;;
62927;SDS011;51070;52.236;-0.892;2023-02-14T05:13:19;34.70;;;18.50;;
62927;SDS011;51070;52.236;-0.892;2023-02-14T05:15:44;36.20;;;20.00;;
62927;SDS011;51070;52.236;-0.892;2023-02-14T05:18:10;36.70;;;21.70;;
62927;SDS011;51070;52.236;-0.892;2023-02-14T05:20:36;38.00;;;21.40;;
62927;SDS011;51070;52.236;-0.892;2023-02-14T05:23:01;38.20;;;20.00;;
62927;SDS011;51070;52.236;-0.892;2023-02-14T05:25:28;32.10;;;19.10;;
62927;SDS011;51070;52.236;-0.892;2023-02-14T05:27:54;30.70;;;17.00;;
62927;SDS011;51070;52.236;-0.892;2023-02-14T05:30:20;29.90;;;18.60;;
62927;SDS011;51070;52.236;-0.892;2023-02-14T05:32:52;33.90;;;19.20;;
62927;SDS011;51070;52.236;-0.892;2023-02-14T05:35:18;33.00;;;18.50;;
62927;SDS011;51070;52.236;-0.892;2023-02-14T05:37:43;30.10;;;17.60;;
62927;SDS011;51070;52.236;-0.892;2023-02-14T05:40:09;22.80;;;13.60;;
62927;SDS011;51070;52.236;-0.892;2023-02-14T05:42:37;30.10;;;15.40;;
62927;SDS011;51070;52.236;-0.892;2023-02-14T05:45:04;25.70;;;14.70;;
62927;SDS011;51070;52.236;-0.892;2023-02-14T05:47:30;21.90;;;13.00;;
62927;SDS011;51070;52.236;-0.892;2023-02-14T05:49:56;23.30;;;14.70;;
62927;SDS011;51070;52.236;-0.892;2023-02-14T05:52:21;22.30;;;13.40;;
62927;SDS011;51070;52.236;-0.892;2023-02-14T05:54:46;22.30;;;13.10;;
62927;SDS011;51070;52.236;-0.892;2023-02-14T05:57:12;34.30;;;17.00;;
62927;SDS011;51070;52.236;-0.892;2023-02-14T05:59:37;31.00;;;17.30;;
62927;SDS011;51070;52.236;-0.892;2023-02-14T06:02:03;33.40;;;19.20;;
62927;SDS011;51070;52.236;-0.892;2023-02-14T06:04:28;28.90;;;15.30;;
62927;SDS011;51070;52.236;-0.892;2023-02-14T06:06:53;25.60;;;14.70;;
62927;SDS011;51070;52.236;-0.892;2023-02-14T06:09:19;25.10;;;14.10;;
62927;SDS011;51070;52.236;-0.892;2023-02-14T06:11:44;22.90;;;12.50;;
62927;SDS011;51070;52.236;-0.892;2023-02-14T06:14:09;23.10;;;12.10;;
62927;SDS011;51070;52.236;-0.892;2023-02-14T06:16:35;27.50;;;16.20;;
62927;SDS011;51070;52.236;-0.892;2023-02-14T06:19:00;23.30;;;13.00;;
62927;SDS011;51070;52.236;-0.892;2023-02-14T06:21:26;23.20;;;15.20;;
62927;SDS011;51070;52.236;-0.892;2023-02-14T06:23:51;23.70;;;13.20;;
62927;SDS011;51070;52.236;-0.892;2023-02-14T06:26:16;24.20;;;15.20;;
62927;SDS011;51070;52.236;-0.892;2023-02-14T06:28:42;25.50;;;14.10;;
62927;SDS011;51070;52.236;-0.892;2023-02-14T06:31:07;23.60;;;14.10;;
62927;SDS011;51070;52.236;-0.892;2023-02-14T06:33:39;25.60;;;15.10;;
62927;SDS011;51070;52.236;-0.892;2023-02-14T06:36:05;28.10;;;16.40;;
62927;SDS011;51070;52.236;-0.892;2023-02-14T06:38:31;28.40;;;17.70;;
62927;SDS011;51070;52.236;-0.892;2023-02-14T06:41:01;17.50;;;10.50;;
62927;SDS011;51070;52.236;-0.892;2023-02-14T06:43:30;22.30;;;12.70;;
62927;SDS011;51070;52.236;-0.892;2023-02-14T06:45:55;26.10;;;14.50;;
62927;SDS011;51070;52.236;-0.892;2023-02-14T06:48:21;22.20;;;12.10;;
62927;SDS011;51070;52.236;-0.892;2023-02-14T06:50:47;26.70;;;14.60;;
62927;SDS011;51070;52.236;-0.892;2023-02-14T06:53:12;28.30;;;17.60;;
62927;SDS011;51070;52.236;-0.892;2023-02-14T06:55:37;27.40;;;14.90;;
62927;SDS011;51070;52.236;-0.892;2023-02-14T06:58:03;28.40;;;16.30;;
62927;SDS011;51070;52.236;-0.892;2023-02-14T07:00:28;25.10;;;14.40;;
62927;SDS011;51070;52.236;-0.892;2023-02-14T07:02:54;28.60;;;16.40;;
62927;SDS011;51070;52.236;-0.892;2023-02-14T07:05:19;26.30;;;15.40;;
62927;SDS011;51070;52.236;-0.892;2023-02-14T07:07:46;27.60;;;16.50;;
62927;SDS011;51070;52.236;-0.892;2023-02-14T07:10:11;24.90;;;14.00;;
62927;SDS011;51070;52.236;-0.892;2023-02-14T07:12:37;22.40;;;12.90;;
62927;SDS011;51070;52.236;-0.892;2023-02-14T07:15:05;21.50;;;13.10;;
62927;SDS011;51070;52.236;-0.892;2023-02-14T07:17:32;28.50;;;16.70;;
62927;SDS011;51070;52.236;-0.892;2023-02-14T07:19:57;22.70;;;12.30;;
62927;SDS011;51070;52.236;-0.892;2023-02-14T07:22:23;28.50;;;15.90;;
62927;SDS011;51070;52.236;-0.892;2023-02-14T07:24:48;29.10;;;15.20;;
62927;SDS011;51070;52.236;-0.892;2023-02-14T07:27:13;27.50;;;16.50;;
62927;SDS011;51070;52.236;-0.892;2023-02-14T07:29:38;27.60;;;15.70;;
62927;SDS011;51070;52.236;-0.892;2023-02-14T07:32:04;24.60;;;13.50;;
62927;SDS011;51070;52.236;-0.892;2023-02-14T07:34:29;25.60;;;15.10;;
62927;SDS011;51070;52.236;-0.892;2023-02-14T07:36:55;23.90;;;13.50;;
62927;SDS011;51070;52.236;-0.892;2023-02-14T07:39:20;32.40;;;18.30;;
62927;SDS011;51070;52.236;-0.892;2023-02-14T07:41:45;29.60;;;17.20;;
62927;SDS011;51070;52.236;-0.892;2023-02-14T07:44:11;23.20;;;13.10;;
62927;SDS011;51070;52.236;-0.892;2023-02-14T07:46:36;27.40;;;16.30;;
62927;SDS011;51070;52.236;-0.892;2023-02-14T07:49:01;17.40;;;12.00;;
62927;SDS011;51070;52.236;-0.892;2023-02-14T07:51:27;24.40;;;14.20;;
62927;SDS011;51070;52.236;-0.892;2023-02-14T07:53:52;24.90;;;13.70;;
62927;SDS011;51070;52.236;-0.892;2023-02-14T07:56:18;19.00;;;12.00;;
62927;SDS011;51070;52.236;-0.892;2023-02-14T07:58:43;25.50;;;13.60;;
62927;SDS011;51070;52.236;-0.892;2023-02-14T08:01:09;17.60;;;10.70;;
62927;SDS011;51070;52.236;-0.892;2023-02-14T08:03:34;25.30;;;14.20;;
62927;SDS011;51070;52.236;-0.892;2023-02-14T08:06:00;28.20;;;16.40;;
62927;SDS011;51070;52.236;-0.892;2023-02-14T08:08:26;25.50;;;14.60;;
62927;SDS011;51070;52.236;-0.892;2023-02-14T08:10:53;22.10;;;13.10;;
62927;SDS011;51070;52.236;-0.892;2023-02-14T08:13:19;19.80;;;12.20;;
62927;SDS011;51070;52.236;-0.892;2023-02-14T08:15:45;19.80;;;12.10;;
62927;SDS011;51070;52.236;-0.892;2023-02-14T08:18:30;26.60;;;15.50;;
62927;SDS011;51070;52.236;-0.892;2023-02-14T08:20:59;23.80;;;13.40;;
62927;SDS011;51070;52.236;-0.892;2023-02-14T08:23:25;26.40;;;15.50;;
62927;SDS011;51070;52.236;-0.892;2023-02-14T08:25:51;26.10;;;15.40;;
62927;SDS011;51070;52.236;-0.892;2023-02-14T08:28:17;24.60;;;14.60;;
62927;SDS011;51070;52.236;-0.892;2023-02-14T08:30:43;21.00;;;13.00;;
62927;SDS011;51070;52.236;-0.892;2023-02-14T08:33:09;18.60;;;11.10;;
62927;SDS011;51070;52.236;-0.892;2023-02-14T08:35:36;22.20;;;13.70;;
62927;SDS011;51070;52.236;-0.892;2023-02-14T08:38:01;22.20;;;13.50;;
62927;SDS011;51070;52.236;-0.892;2023-02-14T08:40:28;22.00;;;12.70;;
62927;SDS011;51070;52.236;-0.892;2023-02-14T08:42:54;24.50;;;14.50;;
62927;SDS011;51070;52.236;-0.892;2023-02-14T08:45:19;30.80;;;13.80;;
62927;SDS011;51070;52.236;-0.892;2023-02-14T08:47:45;25.80;;;14.60;;
62927;SDS011;51070;52.236;-0.892;2023-02-14T08:50:11;23.20;;;13.40;;
62927;SDS011;51070;52.236;-0.892;2023-02-14T08:52:39;19.30;;;12.10;;
62927;SDS011;51070;52.236;-0.892;2023-02-14T08:55:06;16.80;;;10.20;;
62927;SDS011;51070;52.236;-0.892;2023-02-14T08:57:31;24.30;;;13.90;;
62927;SDS011;51070;52.236;-0.892;2023-02-14T08:59:57;23.60;;;15.40;;
62927;SDS011;51070;52.236;-0.892;2023-02-14T09:02:22;16.60;;;9.40;;
62927;SDS011;51070;52.236;-0.892;2023-02-14T09:04:48;15.30;;;8.90;;
62927;SDS011;51070;52.236;-0.892;2023-02-14T09:07:13;21.30;;;13.60;;
62927;SDS011;51070;52.236;-0.892;2023-02-14T09:09:39;18.60;;;11.30;;
62927;SDS011;51070;52.236;-0.892;2023-02-14T09:12:05;17.20;;;11.30;;
62927;SDS011;51070;52.236;-0.892;2023-02-14T09:14:36;19.00;;;11.00;;
62927;SDS011;51070;52.236;-0.892;2023-02-14T09:17:02;20.50;;;12.90;;
62927;SDS011;51070;52.236;-0.892;2023-02-14T09:19:33;20.00;;;12.10;;
62927;SDS011;51070;52.236;-0.892;2023-02-14T09:22:00;16.30;;;11.30;;
62927;SDS011;51070;52.236;-0.892;2023-02-14T09:24:28;18.80;;;12.30;;
62927;SDS011;51070;52.236;-0.892;2023-02-14T09:26:54;14.00;;;9.20;;
62927;SDS011;51070;52.236;-0.892;2023-02-14T09:29:22;18.40;;;11.90;;
62927;SDS011;51070;52.236;-0.892;2023-02-14T09:31:52;16.20;;;10.40;;
62927;SDS011;51070;52.236;-0.892;2023-02-14T09:34:18;14.00;;;9.80;;
62927;SDS011;51070;52.236;-0.892;2023-02-14T09:37:01;15.00;;;10.30;;
62927;SDS011;51070;52.236;-0.892;2023-02-14T09:39:46;15.10;;;9.50;;
62927;SDS011;51070;52.236;-0.892;2023-02-14T09:45:10;14.70;;;9.70;;
62927;SDS011;51070;52.236;-0.892;2023-02-14T09:50:12;14.20;;;9.30;;
62927;SDS011;51070;52.236;-0.892;2023-02-14T09:52:50;16.90;;;10.30;;
62927;SDS011;51070;52.236;-0.892;2023-02-14T09:55:20;18.50;;;11.90;;
62927;SDS011;51070;52.236;-0.892;2023-02-14T10:00:55;11.90;;;7.10;;
62927;SDS011;51070;52.236;-0.892;2023-02-14T10:12:19;18.50;;;11.40;;
62927;SDS011;51070;52.236;-0.892;2023-02-14T10:15:18;16.20;;;9.80;;
62927;SDS011;51070;52.236;-0.892;2023-02-14T10:17:52;15.20;;;11.10;;
62927;SDS011;51070;52.236;-0.892;2023-02-14T10:20:25;15.90;;;10.90;;
62927;SDS011;51070;52.236;-0.892;2023-02-14T10:22:58;16.80;;;11.70;;
62927;SDS011;51070;52.236;-0.892;2023-02-14T10:28:01;16.50;;;10.90;;
62927;SDS011;51070;52.236;-0.892;2023-02-14T10:30:26;16.70;;;11.40;;
62927;SDS011;51070;52.236;-0.892;2023-02-14T10:33:03;15.90;;;10.10;;
62927;SDS011;51070;52.236;-0.892;2023-02-14T10:35:51;16.90;;;10.10;;
62927;SDS011;51070;52.236;-0.892;2023-02-14T10:47:00;15.50;;;10.80;;
62927;SDS011;51070;52.236;-0.892;2023-02-14T10:58:18;15.90;;;10.30;;
62927;SDS011;51070;52.236;-0.892;2023-02-14T11:01:32;14.50;;;9.50;;
62927;SDS011;51070;52.236;-0.892;2023-02-14T11:03:32;19.00;;;12.00;;
62927;SDS011;51070;52.236;-0.892;2023-02-14T11:06:00;19.80;;;13.40;;
62927;SDS011;51070;52.236;-0.892;2023-02-14T11:08:37;17.70;;;11.90;;
62927;SDS011;51070;52.236;-0.892;2023-02-14T11:13:46;18.90;;;11.90;;
62927;SDS011;51070;52.236;-0.892;2023-02-14T11:16:22;18.70;;;11.60;;
62927;SDS011;51070;52.236;-0.892;2023-02-14T11:21:37;18.40;;;12.20;;
62927;SDS011;51070;52.236;-0.892;2023-02-14T11:24:18;19.60;;;13.00;;
62927;SDS011;51070;52.236;-0.892;2023-02-14T11:26:45;17.10;;;11.30;;
62927;SDS011;51070;52.236;-0.892;2023-02-14T11:31:39;16.90;;;11.80;;
62927;SDS011;51070;52.236;-0.892;2023-02-14T11:36:56;14.20;;;9.90;;
62927;SDS011;51070;52.236;-0.892;2023-02-14T11:41:57;17.40;;;12.20;;
62927;SDS011;51070;52.236;-0.892;2023-02-14T11:44:28;15.80;;;10.10;;
62927;SDS011;51070;52.236;-0.892;2023-02-14T11:46:57;20.80;;;12.80;;
62927;SDS011;51070;52.236;-0.892;2023-02-14T11:49:42;14.80;;;11.10;;
62927;SDS011;51070;52.236;-0.892;2023-02-14T11:52:22;14.00;;;9.10;;
62927;SDS011;51070;52.236;-0.892;2023-02-14T11:54:54;16.10;;;11.60;;
62927;SDS011;51070;52.236;-0.892;2023-02-14T12:00:10;18.00;;;11.50;;
62927;SDS011;51070;52.236;-0.892;2023-02-14T12:02:42;14.20;;;9.70;;
62927;SDS011;51070;52.236;-0.892;2023-02-14T12:05:17;15.10;;;10.40;;
62927;SDS011;51070;52.236;-0.892;2023-02-14T12:07:46;14.40;;;10.50;;
62927;SDS011;51070;52.236;-0.892;2023-02-14T12:10:17;21.40;;;12.10;;
62927;SDS011;51070;52.236;-0.892;2023-02-14T12:31:28;19.20;;;12.80;;
62927;SDS011;51070;52.236;-0.892;2023-02-14T12:33:54;16.60;;;10.90;;
62927;SDS011;51070;52.236;-0.892;2023-02-14T12:36:43;16.70;;;12.20;;
62927;SDS011;51070;52.236;-0.892;2023-02-14T12:39:21;15.80;;;11.90;;
62927;SDS011;51070;52.236;-0.892;2023-02-14T12:42:01;14.20;;;9.30;;
62927;SDS011;51070;52.236;-0.892;2023-02-14T12:44:55;16.50;;;12.10;;
62927;SDS011;51070;52.236;-0.892;2023-02-14T12:56:19;17.60;;;11.40;;
62927;SDS011;51070;52.236;-0.892;2023-02-14T12:59:27;16.10;;;11.40;;
62927;SDS011;51070;52.236;-0.892;2023-02-14T13:08:18;14.40;;;10.10;;
62927;SDS011;51070;52.236;-0.892;2023-02-14T13:22:07;14.00;;;10.30;;
62927;SDS011;51070;52.236;-0.892;2023-02-14T13:24:38;15.50;;;9.80;;
62927;SDS011;51070;52.236;-0.892;2023-02-14T13:27:07;16.20;;;11.00;;
62927;SDS011;51070;52.236;-0.892;2023-02-14T13:29:44;16.60;;;11.20;;
62927;SDS011;51070;52.236;-0.892;2023-02-14T13:32:14;15.70;;;11.40;;
62927;SDS011;51070;52.236;-0.892;2023-02-14T13:34:44;11.40;;;7.70;;
62927;SDS011;51070;52.236;-0.892;2023-02-14T13:37:12;13.40;;;9.60;;
62927;SDS011;51070;52.236;-0.892;2023-02-14T13:40:03;16.50;;;9.70;;
62927;SDS011;51070;52.236;-0.892;2023-02-14T13:42:49;11.70;;;8.00;;
62927;SDS011;51070;52.236;-0.892;2023-02-14T13:46:03;15.00;;;9.20;;
62927;SDS011;51070;52.236;-0.892;2023-02-14T13:48:17;22.50;;;10.00;;
62927;SDS011;51070;52.236;-0.892;2023-02-14T13:58:50;16.00;;;10.40;;
62927;SDS011;51070;52.236;-0.892;2023-02-14T14:01:32;13.80;;;10.00;;
62927;SDS011;51070;52.236;-0.892;2023-02-14T14:17:37;14.00;;;10.00;;
62927;SDS011;51070;52.236;-0.892;2023-02-14T14:22:52;13.60;;;9.80;;
62927;SDS011;51070;52.236;-0.892;2023-02-14T14:25:33;14.70;;;10.50;;
62927;SDS011;51070;52.236;-0.892;2023-02-14T14:28:06;15.10;;;10.60;;
62927;SDS011;51070;52.236;-0.892;2023-02-14T14:30:36;16.10;;;10.00;;
62927;SDS011;51070;52.236;-0.892;2023-02-14T14:36:04;12.20;;;9.40;;
62927;SDS011;51070;52.236;-0.892;2023-02-14T14:38:33;15.10;;;10.10;;
62927;SDS011;51070;52.236;-0.892;2023-02-14T14:41:09;14.40;;;9.70;;
62927;SDS011;51070;52.236;-0.892;2023-02-14T14:43:35;14.90;;;9.70;;
62927;SDS011;51070;52.236;-0.892;2023-02-14T14:51:01;14.90;;;9.70;;
62927;SDS011;51070;52.236;-0.892;2023-02-14T14:53:31;14.70;;;9.70;;
62927;SDS011;51070;52.236;-0.892;2023-02-14T15:01:41;13.00;;;9.20;;
62927;SDS011;51070;52.236;-0.892;2023-02-14T15:04:18;15.40;;;10.10;;
62927;SDS011;51070;52.236;-0.892;2023-02-14T15:06:55;15.80;;;10.90;;
62927;SDS011;51070;52.236;-0.892;2023-02-14T15:11:56;18.50;;;11.60;;
62927;SDS011;51070;52.236;-0.892;2023-02-14T15:14:44;14.60;;;10.50;;
62927;SDS011;51070;52.236;-0.892;2023-02-14T15:17:24;17.10;;;11.20;;
62927;SDS011;51070;52.236;-0.892;2023-02-14T15:19:57;17.50;;;11.70;;
62927;SDS011;51070;52.236;-0.892;2023-02-14T15:22:29;21.80;;;12.40;;
62927;SDS011;51070;52.236;-0.892;2023-02-14T15:25:10;17.10;;;12.00;;
62927;SDS011;51070;52.236;-0.892;2023-02-14T15:27:38;17.70;;;11.10;;
62927;SDS011;51070;52.236;-0.892;2023-02-14T15:30:25;15.60;;;11.00;;
62927;SDS011;51070;52.236;-0.892;2023-02-14T15:32:58;15.60;;;11.40;;
62927;SDS011;51070;52.236;-0.892;2023-02-14T15:35:28;15.00;;;10.90;;
62927;SDS011;51070;52.236;-0.892;2023-02-14T15:37:56;15.60;;;10.90;;
62927;SDS011;51070;52.236;-0.892;2023-02-14T15:40:24;20.30;;;12.90;;
62927;SDS011;51070;52.236;-0.892;2023-02-14T15:42:52;17.80;;;11.70;;
62927;SDS011;51070;52.236;-0.892;2023-02-14T15:50:31;15.50;;;12.40;;
62927;SDS011;51070;52.236;-0.892;2023-02-14T15:55:29;14.30;;;11.20;;
62927;SDS011;51070;52.236;-0.892;2023-02-14T15:58:00;15.30;;;10.80;;
62927;SDS011;51070;52.236;-0.892;2023-02-14T16:00:28;19.20;;;12.40;;
62927;SDS011;51070;52.236;-0.892;2023-02-14T16:02:57;12.70;;;9.70;;
62927;SDS011;51070;52.236;-0.892;2023-02-14T16:05:27;16.10;;;10.80;;
62927;SDS011;51070;52.236;-0.892;2023-02-14T16:08:00;20.60;;;11.70;;
62927;SDS011;51070;52.236;-0.892;2023-02-14T16:10:33;15.00;;;10.40;;
62927;SDS011;51070;52.236;-0.892;2023-02-14T16:13:02;15.00;;;10.90;;
62927;SDS011;51070;52.236;-0.892;2023-02-14T16:26:02;13.80;;;9.20;;
62927;SDS011;51070;52.236;-0.892;2023-02-14T16:28:29;15.90;;;9.10;;
62927;SDS011;51070;52.236;-0.892;2023-02-14T16:30:57;16.50;;;10.00;;
62927;SDS011;51070;52.236;-0.892;2023-02-14T16:33:28;15.60;;;9.80;;
62927;SDS011;51070;52.236;-0.892;2023-02-14T16:36:00;13.30;;;9.80;;
62927;SDS011;51070;52.236;-0.892;2023-02-14T16:38:30;18.30;;;10.10;;
62927;SDS011;51070;52.236;-0.892;2023-02-14T16:40:59;15.30;;;9.50;;
62927;SDS011;51070;52.236;-0.892;2023-02-14T16:43:27;15.70;;;10.20;;
62927;SDS011;51070;52.236;-0.892;2023-02-14T16:45:52;17.50;;;10.50;;
62927;SDS011;51070;52.236;-0.892;2023-02-14T16:48:18;16.20;;;10.30;;
62927;SDS011;51070;52.236;-0.892;2023-02-14T16:50:43;13.70;;;9.10;;
62927;SDS011;51070;52.236;-0.892;2023-02-14T16:53:18;19.00;;;11.60;;
62927;SDS011;51070;52.236;-0.892;2023-02-14T16:55:50;15.10;;;10.80;;
62927;SDS011;51070;52.236;-0.892;2023-02-14T16:58:17;17.00;;;11.00;;
62927;SDS011;51070;52.236;-0.892;2023-02-14T17:00:44;16.10;;;11.10;;
62927;SDS011;51070;52.236;-0.892;2023-02-14T17:03:09;16.40;;;10.30;;
62927;SDS011;51070;52.236;-0.892;2023-02-14T17:05:36;16.40;;;10.50;;
62927;SDS011;51070;52.236;-0.892;2023-02-14T17:08:05;18.00;;;10.50;;
62927;SDS011;51070;52.236;-0.892;2023-02-14T17:10:34;18.90;;;12.50;;
62927;SDS011;51070;52.236;-0.892;2023-02-14T17:12:59;17.30;;;12.30;;
62927;SDS011;51070;52.236;-0.892;2023-02-14T17:15:28;19.60;;;11.10;;
62927;SDS011;51070;52.236;-0.892;2023-02-14T17:17:55;18.90;;;12.10;;
62927;SDS011;51070;52.236;-0.892;2023-02-14T17:20:26;15.70;;;11.00;;
62927;SDS011;51070;52.236;-0.892;2023-02-14T17:22:52;18.70;;;11.80;;
62927;SDS011;51070;52.236;-0.892;2023-02-14T17:25:19;16.60;;;11.70;;
62927;SDS011;51070;52.236;-0.892;2023-02-14T17:27:45;20.70;;;11.90;;
62927;SDS011;51070;52.236;-0.892;2023-02-14T17:30:11;21.60;;;12.10;;
62927;SDS011;51070;52.236;-0.892;2023-02-14T17:32:38;16.70;;;12.00;;
62927;SDS011;51070;52.236;-0.892;2023-02-14T17:35:04;18.50;;;11.80;;
62927;SDS011;51070;52.236;-0.892;2023-02-14T17:37:32;20.40;;;13.60;;
62927;SDS011;51070;52.236;-0.892;2023-02-14T17:39:59;16.30;;;11.50;;
62927;SDS011;51070;52.236;-0.892;2023-02-14T17:42:25;15.90;;;12.30;;
62927;SDS011;51070;52.236;-0.892;2023-02-14T17:44:50;18.50;;;11.80;;
62927;SDS011;51070;52.236;-0.892;2023-02-14T17:47:16;17.80;;;13.00;;
62927;SDS011;51070;52.236;-0.892;2023-02-14T17:49:45;21.10;;;12.70;;
62927;SDS011;51070;52.236;-0.892;2023-02-14T17:52:12;16.70;;;12.20;;
62927;SDS011;51070;52.236;-0.892;2023-02-14T17:54:38;18.70;;;11.60;;
62927;SDS011;51070;52.236;-0.892;2023-02-14T17:57:03;16.40;;;11.10;;
62927;SDS011;51070;52.236;-0.892;2023-02-14T17:59:30;18.80;;;12.30;;
62927;SDS011;51070;52.236;-0.892;2023-02-14T18:01:56;20.00;;;13.00;;